createdAt,value
2022-12-23T00:13:04.491Z,95042.19
2022-12-23T00:28:05.882Z,95029.69
2022-12-23T00:43:07.333Z,95023.97
2022-12-23T00:58:08.755Z,95015.25
2022-12-23T01:13:10.160Z,95036.00
2022-12-23T01:28:11.588Z,95041.16
2022-12-23T01:43:12.960Z,95039.59
2022-12-23T01:58:14.561Z,95053.09
2022-12-23T02:13:16.540Z,95078.66
2022-12-23T02:28:17.936Z,95109.25
2022-12-23T02:43:19.338Z,95104.88
2022-12-23T02:58:20.765Z,95104.78
2022-12-23T03:13:22.147Z,95126.25
2022-12-23T03:28:23.595Z,95143.28
2022-12-23T03:43:24.936Z,95154.63
2022-12-23T03:58:26.370Z,95183.44
2022-12-23T04:13:27.706Z,95195.31
2022-12-23T04:28:29.109Z,95202.16
2022-12-23T04:43:30.489Z,95216.47
2022-12-23T04:58:31.866Z,95217.63
2022-12-23T05:13:33.251Z,95221.63
2022-12-23T05:28:34.594Z,95265.19
2022-12-23T05:43:36.117Z,95264.94
2022-12-23T05:58:38.478Z,95282.22
2022-12-23T06:13:44.135Z,95295.13
2022-12-23T06:28:45.685Z,95291.06
2022-12-23T06:43:52.547Z,95311.06
2022-12-23T06:58:55.582Z,95312.22
2022-12-23T07:13:56.900Z,95343.63
2022-12-23T07:28:58.357Z,95357.22
2022-12-23T07:44:00.790Z,95345.63
2022-12-23T07:59:02.203Z,95343.72
2022-12-23T08:14:05.951Z,95367.66
2022-12-23T08:29:08.420Z,95378.00
2022-12-23T08:44:09.869Z,95362.72
2022-12-23T08:59:18.055Z,95362.41
2022-12-23T09:14:20.359Z,95365.31
2022-12-23T09:29:21.813Z,95379.59
2022-12-23T09:44:23.231Z,95358.25
2022-12-23T09:59:24.807Z,95369.22
2022-12-23T10:14:26.210Z,95356.41
2022-12-23T10:29:27.720Z,95341.34
2022-12-23T10:44:29.131Z,95335.81
2022-12-23T10:59:30.518Z,95311.28
2022-12-23T11:14:32.265Z,95293.06
2022-12-23T11:29:34.298Z,95276.03
2022-12-23T11:44:36.092Z,95240.09
2022-12-23T11:59:38.166Z,95221.56
2022-12-23T12:14:42.819Z,95190.00
2022-12-23T12:29:46.598Z,95171.47
2022-12-23T12:44:48.075Z,95160.19
2022-12-23T12:59:50.876Z,95137.94
2022-12-23T13:14:52.416Z,95103.75
2022-12-23T13:29:58.076Z,95094.50
2022-12-23T13:45:01.409Z,95076.38
2022-12-23T14:00:06.262Z,95075.00
2022-12-23T14:15:13.927Z,95055.50
2022-12-23T14:30:15.383Z,95047.25
2022-12-23T14:45:16.789Z,95041.44
2022-12-23T15:00:18.505Z,95033.19
2022-12-23T15:15:20.211Z,95041.66
2022-12-23T15:30:21.600Z,95041.03
2022-12-23T15:45:23.016Z,95066.00
2022-12-23T16:00:29.611Z,95071.66
2022-12-23T16:15:31.030Z,95061.63
2022-12-23T16:30:32.454Z,95041.88
2022-12-23T16:45:33.936Z,95044.72
2022-12-23T17:00:35.473Z,95062.81
2022-12-23T17:15:36.975Z,95059.59
2022-12-23T17:30:38.492Z,95052.94
2022-12-23T17:45:39.881Z,95073.06
2022-12-23T18:00:42.495Z,95099.66
2022-12-23T18:15:43.873Z,95101.44
2022-12-23T18:30:45.315Z,95130.16
2022-12-23T18:45:52.439Z,95113.34
2022-12-23T19:00:55.053Z,95137.88
2022-12-23T19:15:56.505Z,95147.50
2022-12-23T19:30:58.117Z,95171.88
2022-12-23T19:45:59.667Z,95192.41
2022-12-23T20:01:01.086Z,95233.25
2022-12-23T20:16:02.543Z,95231.59
2022-12-23T20:31:04.026Z,95234.84
2022-12-23T20:46:05.400Z,95270.22
2022-12-23T21:01:06.774Z,95302.81
2022-12-23T21:16:08.230Z,95326.69
2022-12-23T21:31:09.662Z,95342.56
2022-12-23T21:46:11.118Z,95335.41
2022-12-23T22:01:12.550Z,95362.66
2022-12-23T22:16:13.953Z,95375.81
2022-12-23T22:31:15.432Z,95451.44
2022-12-23T22:46:17.045Z,95437.41
2022-12-23T23:01:18.605Z,95445.47
2022-12-23T23:16:20.008Z,95463.41
2022-12-23T23:46:42.778Z,95464.34
